sensor_id;sensor_type;location;lat;lon;timestamp;pressure;altitude;pressure_sealevel;temperature;humidity
81352;BME280;70809;52.184;13.422;2023-07-20T00:00:55;100753.16;;;15.31;87.95
81352;BME280;70809;52.184;13.422;2023-07-20T00:01:57;100747.81;;;15.35;88.03
81352;BME280;70809;52.184;13.422;2023-07-20T00:03:11;100747.69;;;15.63;86.99
81352;BME280;70809;52.184;13.422;2023-07-20T00:04:14;100750.34;;;15.68;86.10
81352;BME280;70809;52.184;13.422;2023-07-20T00:05:16;100753.94;;;15.54;86.81
81352;BME280;70809;52.184;13.422;2023-07-20T00:06:17;100753.09;;;15.46;87.28
81352;BME280;70809;52.184;13.422;2023-07-20T00:07:19;100752.19;;;15.47;87.28
81352;BME280;70809;52.184;13.422;2023-07-20T00:08:21;100757.44;;;15.59;87.02
81352;BME280;70809;52.184;13.422;2023-07-20T00:09:22;100753.13;;;15.43;87.34
81352;BME280;70809;52.184;13.422;2023-07-20T00:10:24;100760.19;;;15.50;87.38
81352;BME280;70809;52.184;13.422;2023-07-20T00:11:27;100755.69;;;15.54;87.00
81352;BME280;70809;52.184;13.422;2023-07-20T00:12:29;100756.63;;;15.50;87.09
81352;BME280;70809;52.184;13.422;2023-07-20T00:13:31;100755.72;;;15.55;87.22
81352;BME280;70809;52.184;13.422;2023-07-20T00:14:32;100756.75;;;15.31;88.12
81352;BME280;70809;52.184;13.422;2023-07-20T00:15:34;100753.13;;;15.43;87.82
81352;BME280;70809;52.184;13.422;2023-07-20T00:16:36;100754.06;;;15.37;87.80
81352;BME280;70809;52.184;13.422;2023-07-20T00:17:38;100756.69;;;15.44;88.29
81352;BME280;70809;52.184;13.422;2023-07-20T00:18:41;100763.69;;;15.57;87.55
81352;BME280;70809;52.184;13.422;2023-07-20T00:19:43;100755.69;;;15.63;86.85
81352;BME280;70809;52.184;13.422;2023-07-20T00:20:45;100752.16;;;15.52;87.63
81352;BME280;70809;52.184;13.422;2023-07-20T00:21:47;100752.16;;;15.55;87.64
81352;BME280;70809;52.184;13.422;2023-07-20T00:22:48;100747.75;;;15.48;87.34
81352;BME280;70809;52.184;13.422;2023-07-20T00:23:50;100754.81;;;15.55;87.63
81352;BME280;70809;52.184;13.422;2023-07-20T00:24:53;100757.56;;;15.44;87.89
81352;BME280;70809;52.184;13.422;2023-07-20T00:25:55;100751.31;;;15.45;87.80
81352;BME280;70809;52.184;13.422;2023-07-20T00:26:57;100744.25;;;15.44;87.55
81352;BME280;70809;52.184;13.422;2023-07-20T00:27:59;100745.16;;;15.40;88.00
81352;BME280;70809;52.184;13.422;2023-07-20T00:29:00;100753.16;;;15.37;88.58
81352;BME280;70809;52.184;13.422;2023-07-20T00:30:03;100744.31;;;15.33;88.47
81352;BME280;70809;52.184;13.422;2023-07-20T00:31:06;100746.06;;;15.34;88.55
81352;BME280;70809;52.184;13.422;2023-07-20T00:32:08;100748.63;;;15.48;88.20
81352;BME280;70809;52.184;13.422;2023-07-20T00:33:12;100750.34;;;15.64;87.47
81352;BME280;70809;52.184;13.422;2023-07-20T00:34:15;100746.81;;;15.65;87.25
81352;BME280;70809;52.184;13.422;2023-07-20T00:35:17;100749.44;;;15.67;87.33
81352;BME280;70809;52.184;13.422;2023-07-20T00:36:18;100746.72;;;15.78;86.77
81352;BME280;70809;52.184;13.422;2023-07-20T00:37:21;100751.19;;;15.73;87.11
81352;BME280;70809;52.184;13.422;2023-07-20T00:38:22;100739.56;;;15.83;86.59
81352;BME280;70809;52.184;13.422;2023-07-20T00:39:24;100752.97;;;15.72;86.64
81352;BME280;70809;52.184;13.422;2023-07-20T00:40:26;100752.97;;;15.71;87.09
81352;BME280;70809;52.184;13.422;2023-07-20T00:41:28;100750.25;;;15.80;86.92
81352;BME280;70809;52.184;13.422;2023-07-20T00:42:30;100752.75;;;16.01;86.00
81352;BME280;70809;52.184;13.422;2023-07-20T00:43:31;100749.09;;;16.13;85.68
81352;BME280;70809;52.184;13.422;2023-07-20T00:44:33;100747.25;;;16.18;85.29
81352;BME280;70809;52.184;13.422;2023-07-20T00:45:36;100748.13;;;16.20;84.62
81352;BME280;70809;52.184;13.422;2023-07-20T00:46:38;100749.25;;;15.88;86.06
81352;BME280;70809;52.184;13.422;2023-07-20T00:47:41;100753.75;;;15.82;86.24
81352;BME280;70809;52.184;13.422;2023-07-20T00:48:43;100756.56;;;15.63;87.12
81352;BME280;70809;52.184;13.422;2023-07-20T00:49:46;100747.72;;;15.52;87.54
81352;BME280;70809;52.184;13.422;2023-07-20T00:50:48;100750.38;;;15.57;87.95
81352;BME280;70809;52.184;13.422;2023-07-20T00:51:49;100758.34;;;15.63;87.57
81352;BME280;70809;52.184;13.422;2023-07-20T00:52:52;100743.94;;;15.88;86.63
81352;BME280;70809;52.184;13.422;2023-07-20T00:53:54;100753.72;;;15.88;86.35
81352;BME280;70809;52.184;13.422;2023-07-20T00:54:56;100746.78;;;15.69;86.77
81352;BME280;70809;52.184;13.422;2023-07-20T00:55:58;100746.81;;;15.56;87.55
81352;BME280;70809;52.184;13.422;2023-07-20T00:57:01;100746.72;;;15.78;86.75
81352;BME280;70809;52.184;13.422;2023-07-20T00:58:03;100752.03;;;15.79;86.49
81352;BME280;70809;52.184;13.422;2023-07-20T00:59:09;100747.63;;;15.71;87.21
81352;BME280;70809;52.184;13.422;2023-07-20T01:00:12;100754.81;;;15.62;87.56
81352;BME280;70809;52.184;13.422;2023-07-20T01:01:14;100752.13;;;15.62;87.66
81352;BME280;70809;52.184;13.422;2023-07-20T01:02:16;100760.09;;;15.59;87.36
81352;BME280;70809;52.184;13.422;2023-07-20T01:03:18;100750.25;;;15.75;87.04
81352;BME280;70809;52.184;13.422;2023-07-20T01:04:20;100752.88;;;15.84;86.71
81352;BME280;70809;52.184;13.422;2023-07-20T01:05:30;100749.25;;;15.95;86.54
81352;BME280;70809;52.184;13.422;2023-07-20T01:06:41;100745.56;;;16.08;85.80
81352;BME280;70809;52.184;13.422;2023-07-20T01:07:53;100746.56;;;15.93;85.75
81352;BME280;70809;52.184;13.422;2023-07-20T01:09:02;100752.03;;;15.75;86.33
81352;BME280;70809;52.184;13.422;2023-07-20T01:10:11;100750.22;;;15.83;86.57
81352;BME280;70809;52.184;13.422;2023-07-20T01:11:17;100760.06;;;15.70;87.22
81352;BME280;70809;52.184;13.422;2023-07-20T01:12:26;100755.69;;;15.63;87.34
81352;BME280;70809;52.184;13.422;2023-07-20T01:13:29;100760.09;;;15.59;87.69
81352;BME280;70809;52.184;13.422;2023-07-20T01:14:31;100755.69;;;15.54;87.52
81352;BME280;70809;52.184;13.422;2023-07-20T01:15:33;100757.66;;;15.27;88.68
81352;BME280;70809;52.184;13.422;2023-07-20T01:16:35;100761.25;;;15.17;89.32
81352;BME280;70809;52.184;13.422;2023-07-20T01:17:37;100755.84;;;15.32;89.03
81352;BME280;70809;52.184;13.422;2023-07-20T01:18:40;100753.19;;;15.29;89.27
81352;BME280;70809;52.184;13.422;2023-07-20T01:19:41;100756.63;;;15.50;88.65
81352;BME280;70809;52.184;13.422;2023-07-20T01:20:44;100752.25;;;15.43;88.41
81352;BME280;70809;52.184;13.422;2023-07-20T01:21:51;100761.19;;;15.25;88.68
81352;BME280;70809;52.184;13.422;2023-07-20T01:23:22;100763.06;;;15.10;89.79
81352;BME280;70809;52.184;13.422;2023-07-20T01:24:44;100762.09;;;15.19;89.60
81352;BME280;70809;52.184;13.422;2023-07-20T01:26:12;100769.22;;;15.17;89.80
81352;BME280;70809;52.184;13.422;2023-07-20T01:27:41;100766.50;;;15.32;88.88
81352;BME280;70809;52.184;13.422;2023-07-20T01:28:57;100759.47;;;15.21;88.81
81352;BME280;70809;52.184;13.422;2023-07-20T01:30:34;100765.59;;;15.38;89.10
81352;BME280;70809;52.184;13.422;2023-07-20T01:31:44;100770.91;;;15.38;88.41
81352;BME280;70809;52.184;13.422;2023-07-20T01:32:47;100770.03;;;15.30;88.43
81352;BME280;70809;52.184;13.422;2023-07-20T01:33:50;100765.69;;;15.12;89.75
81352;BME280;70809;52.184;13.422;2023-07-20T01:34:54;100763.94;;;15.09;90.12
81352;BME280;70809;52.184;13.422;2023-07-20T01:35:59;100754.19;;;15.10;89.62
81352;BME280;70809;52.184;13.422;2023-07-20T01:37:03;100767.47;;;15.13;90.26
81352;BME280;70809;52.184;13.422;2023-07-20T01:38:06;100762.16;;;15.10;89.64
81352;BME280;70809;52.184;13.422;2023-07-20T01:39:08;100766.66;;;14.97;90.53
81352;BME280;70809;52.184;13.422;2023-07-20T01:40:11;100763.09;;;14.95;91.01
81352;BME280;70809;52.184;13.422;2023-07-20T01:41:15;100757.75;;;15.04;90.20
81352;BME280;70809;52.184;13.422;2023-07-20T01:42:16;100764.81;;;15.14;90.01
81352;BME280;70809;52.184;13.422;2023-07-20T01:43:18;100763.00;;;15.23;89.23
81352;BME280;70809;52.184;13.422;2023-07-20T01:44:20;100760.38;;;15.12;89.49
81352;BME280;70809;52.184;13.422;2023-07-20T01:45:22;100758.53;;;15.23;89.58
81352;BME280;70809;52.184;13.422;2023-07-20T01:46:23;100758.59;;;15.16;89.64
81352;BME280;70809;52.184;13.422;2023-07-20T01:47:27;100759.41;;;15.30;88.68
81352;BME280;70809;52.184;13.422;2023-07-20T01:48:29;100753.22;;;15.25;89.03
81352;BME280;70809;52.184;13.422;2023-07-20T01:49:30;100765.69;;;15.13;89.36
81352;BME280;70809;52.184;13.422;2023-07-20T01:50:33;100766.63;;;15.00;89.73
81352;BME280;70809;52.184;13.422;2023-07-20T01:51:35;100757.78;;;15.03;89.79
81352;BME280;70809;52.184;13.422;2023-07-20T01:52:36;100762.19;;;15.01;89.85
81352;BME280;70809;52.184;13.422;2023-07-20T01:53:38;100758.63;;;15.06;89.92
81352;BME280;70809;52.184;13.422;2023-07-20T01:54:39;100763.03;;;15.15;89.35
81352;BME280;70809;52.184;13.422;2023-07-20T01:55:41;100765.69;;;15.20;88.89
81352;BME280;70809;52.184;13.422;2023-07-20T01:56:43;100757.59;;;15.38;88.43
81352;BME280;70809;52.184;13.422;2023-07-20T01:57:44;100756.72;;;15.34;87.95
81352;BME280;70809;52.184;13.422;2023-07-20T01:58:46;100756.81;;;15.16;89.05
81352;BME280;70809;52.184;13.422;2023-07-20T01:59:48;100754.16;;;15.16;88.99
81352;BME280;70809;52.184;13.422;2023-07-20T02:00:49;100751.53;;;15.08;89.00
81352;BME280;70809;52.184;13.422;2023-07-20T02:01:52;100755.91;;;15.20;88.86
81352;BME280;70809;52.184;13.422;2023-07-20T02:02:55;100747.06;;;15.20;88.95
81352;BME280;70809;52.184;13.422;2023-07-20T02:03:57;100752.34;;;15.26;88.38
81352;BME280;70809;52.184;13.422;2023-07-20T02:04:58;100747.06;;;15.20;88.71
81352;BME280;70809;52.184;13.422;2023-07-20T02:06:00;100751.47;;;15.21;88.74
81352;BME280;70809;52.184;13.422;2023-07-20T02:07:02;100746.16;;;15.16;88.85
81352;BME280;70809;52.184;13.422;2023-07-20T02:08:04;100740.84;;;15.21;88.83
81352;BME280;70809;52.184;13.422;2023-07-20T02:09:05;100746.09;;;15.25;87.97
81352;BME280;70809;52.184;13.422;2023-07-20T02:10:07;100745.16;;;15.43;87.88
81352;BME280;70809;52.184;13.422;2023-07-20T02:11:09;100746.00;;;15.47;86.97
81352;BME280;70809;52.184;13.422;2023-07-20T02:12:11;100747.84;;;15.34;88.02
81352;BME280;70809;52.184;13.422;2023-07-20T02:13:12;100747.03;;;15.21;88.37
81352;BME280;70809;52.184;13.422;2023-07-20T02:14:14;100743.53;;;15.14;88.73
81352;BME280;70809;52.184;13.422;2023-07-20T02:15:16;100757.66;;;15.24;88.16
81352;BME280;70809;52.184;13.422;2023-07-20T02:16:18;100753.22;;;15.23;88.78
81352;BME280;70809;52.184;13.422;2023-07-20T02:17:21;100748.72;;;15.36;88.30
81352;BME280;70809;52.184;13.422;2023-07-20T02:18:24;100747.69;;;15.60;86.89
81352;BME280;70809;52.184;13.422;2023-07-20T02:19:26;100745.09;;;15.46;86.87
81352;BME280;70809;52.184;13.422;2023-07-20T02:20:28;100747.81;;;15.38;87.47
81352;BME280;70809;52.184;13.422;2023-07-20T02:21:29;100741.53;;;15.50;87.17
81352;BME280;70809;52.184;13.422;2023-07-20T02:22:31;100742.66;;;15.14;88.60
81352;BME280;70809;52.184;13.422;2023-07-20T02:23:33;100746.19;;;15.07;88.69
81352;BME280;70809;52.184;13.422;2023-07-20T02:24:35;100754.19;;;15.08;88.88
81352;BME280;70809;52.184;13.422;2023-07-20T02:25:37;100750.53;;;15.25;88.25
81352;BME280;70809;52.184;13.422;2023-07-20T02:26:39;100751.53;;;15.02;89.05
81352;BME280;70809;52.184;13.422;2023-07-20T02:27:43;100745.41;;;14.93;89.42
81352;BME280;70809;52.184;13.422;2023-07-20T02:28:45;100757.78;;;15.03;89.65
81352;BME280;70809;52.184;13.422;2023-07-20T02:29:46;100761.28;;;15.09;88.89
81352;BME280;70809;52.184;13.422;2023-07-20T02:30:48;100755.97;;;15.06;89.09
81352;BME280;70809;52.184;13.422;2023-07-20T02:31:53;100766.59;;;15.06;89.15
81352;BME280;70809;52.184;13.422;2023-07-20T02:32:54;100761.22;;;15.19;88.79
81352;BME280;70809;52.184;13.422;2023-07-20T02:33:58;100757.69;;;15.21;88.22
81352;BME280;70809;52.184;13.422;2023-07-20T02:34:59;100759.53;;;15.08;89.30
81352;BME280;70809;52.184;13.422;2023-07-20T02:36:01;100757.72;;;15.07;89.09
81352;BME280;70809;52.184;13.422;2023-07-20T02:37:03;100763.97;;;15.02;89.24
81352;BME280;70809;52.184;13.422;2023-07-20T02:38:05;100767.56;;;14.93;89.95
81352;BME280;70809;52.184;13.422;2023-07-20T02:39:07;100771.09;;;14.91;89.56
81352;BME280;70809;52.184;13.422;2023-07-20T02:40:12;100769.25;;;15.08;89.09
81352;BME280;70809;52.184;13.422;2023-07-20T02:41:13;100766.56;;;15.16;88.82
81352;BME280;70809;52.184;13.422;2023-07-20T02:42:15;100777.19;;;15.19;88.50
81352;BME280;70809;52.184;13.422;2023-07-20T02:43:17;100773.69;;;15.12;88.61
81352;BME280;70809;52.184;13.422;2023-07-20T02:44:20;100773.75;;;14.94;89.04
81352;BME280;70809;52.184;13.422;2023-07-20T02:45:21;100776.41;;;15.03;88.91
81352;BME280;70809;52.184;13.422;2023-07-20T02:46:24;100775.53;;;14.88;89.49
81352;BME280;70809;52.184;13.422;2023-07-20T02:47:27;100770.19;;;14.95;89.75
81352;BME280;70809;52.184;13.422;2023-07-20T02:48:28;100773.75;;;14.97;89.27
81352;BME280;70809;52.184;13.422;2023-07-20T02:49:32;100784.34;;;15.01;89.36
81352;BME280;70809;52.184;13.422;2023-07-20T02:50:34;100777.25;;;15.06;88.61
81352;BME280;70809;52.184;13.422;2023-07-20T02:51:36;100781.69;;;15.09;88.60
81352;BME280;70809;52.184;13.422;2023-07-20T02:52:38;100777.22;;;15.11;88.85
81352;BME280;70809;52.184;13.422;2023-07-20T02:53:40;100786.09;;;15.14;88.46
81352;BME280;70809;52.184;13.422;2023-07-20T02:54:41;100783.50;;;14.95;88.96
81352;BME280;70809;52.184;13.422;2023-07-20T02:55:43;100789.72;;;14.94;89.33
81352;BME280;70809;52.184;13.422;2023-07-20T02:56:45;100783.50;;;14.90;89.44
81352;BME280;70809;52.184;13.422;2023-07-20T02:57:46;100794.13;;;15.01;89.08
81352;BME280;70809;52.184;13.422;2023-07-20T02:58:48;100786.13;;;15.02;88.73
81352;BME280;70809;52.184;13.422;2023-07-20T02:59:51;100784.38;;;14.98;88.98
81352;BME280;70809;52.184;13.422;2023-07-20T03:00:56;100791.47;;;14.99;89.14
81352;BME280;70809;52.184;13.422;2023-07-20T03:01:58;100781.78;;;14.86;89.32
81352;BME280;70809;52.184;13.422;2023-07-20T03:03:00;100783.53;;;14.87;89.59
81352;BME280;70809;52.184;13.422;2023-07-20T03:04:03;100787.94;;;14.94;89.35
81352;BME280;70809;52.184;13.422;2023-07-20T03:05:08;100783.50;;;14.96;89.30
81352;BME280;70809;52.184;13.422;2023-07-20T03:06:09;100793.28;;;14.88;89.57
81352;BME280;70809;52.184;13.422;2023-07-20T03:07:11;100790.66;;;14.77;90.16
81352;BME280;70809;52.184;13.422;2023-07-20T03:08:13;100789.75;;;14.78;90.09
81352;BME280;70809;52.184;13.422;2023-07-20T03:09:15;100787.97;;;14.83;89.41
81352;BME280;70809;52.184;13.422;2023-07-20T03:10:17;100786.22;;;14.81;90.05
81352;BME280;70809;52.184;13.422;2023-07-20T03:11:20;100790.63;;;14.79;89.85
81352;BME280;70809;52.184;13.422;2023-07-20T03:12:22;100795.03;;;14.94;89.32
81352;BME280;70809;52.184;13.422;2023-07-20T03:13:23;100795.91;;;14.94;89.27
81352;BME280;70809;52.184;13.422;2023-07-20T03:14:26;100805.72;;;14.83;89.90
81352;BME280;70809;52.184;13.422;2023-07-20T03:15:27;100796.84;;;14.78;90.24
81352;BME280;70809;52.184;13.422;2023-07-20T03:16:29;100795.97;;;14.82;90.43
81352;BME280;70809;52.184;13.422;2023-07-20T03:17:31;100803.94;;;14.82;89.80
81352;BME280;70809;52.184;13.422;2023-07-20T03:18:32;100805.72;;;14.80;89.99
81352;BME280;70809;52.184;13.422;2023-07-20T03:19:34;100802.19;;;14.76;90.05
81352;BME280;70809;52.184;13.422;2023-07-20T03:20:38;100810.16;;;14.85;90.20
81352;BME280;70809;52.184;13.422;2023-07-20T03:21:39;100805.69;;;14.92;89.91
81352;BME280;70809;52.184;13.422;2023-07-20T03:22:41;100800.41;;;14.80;90.20
81352;BME280;70809;52.184;13.422;2023-07-20T03:23:43;100810.16;;;14.76;90.08
81352;BME280;70809;52.184;13.422;2023-07-20T03:24:45;100814.59;;;14.71;90.69
81352;BME280;70809;52.184;13.422;2023-07-20T03:25:47;100804.84;;;14.70;90.85
81352;BME280;70809;52.184;13.422;2023-07-20T03:26:49;100803.97;;;14.74;90.84
81352;BME280;70809;52.184;13.422;2023-07-20T03:27:51;100803.97;;;14.60;91.33
81352;BME280;70809;52.184;13.422;2023-07-20T03:28:53;100809.31;;;14.57;91.16
81352;BME280;70809;52.184;13.422;2023-07-20T03:29:56;100806.63;;;14.56;91.44
81352;BME280;70809;52.184;13.422;2023-07-20T03:30:58;100804.88;;;14.66;91.44
81352;BME280;70809;52.184;13.422;2023-07-20T03:32:01;100808.41;;;14.71;91.07
81352;BME280;70809;52.184;13.422;2023-07-20T03:33:03;100800.44;;;14.74;90.65
81352;BME280;70809;52.184;13.422;2023-07-20T03:34:05;100804.84;;;14.73;90.77
81352;BME280;70809;52.184;13.422;2023-07-20T03:35:08;100808.38;;;14.72;90.86
81352;BME280;70809;52.184;13.422;2023-07-20T03:36:11;100794.19;;;14.79;90.09
81352;BME280;70809;52.184;13.422;2023-07-20T03:37:13;100804.88;;;14.69;90.91
81352;BME280;70809;52.184;13.422;2023-07-20T03:38:15;100800.44;;;14.71;90.90
81352;BME280;70809;52.184;13.422;2023-07-20T03:39:16;100800.44;;;14.65;90.93
81352;BME280;70809;52.184;13.422;2023-07-20T03:40:18;100802.19;;;14.73;91.09
81352;BME280;70809;52.184;13.422;2023-07-20T03:41:20;100803.09;;;14.69;90.90
81352;BME280;70809;52.184;13.422;2023-07-20T03:42:25;100807.53;;;14.66;91.00
81352;BME280;70809;52.184;13.422;2023-07-20T03:43:34;100805.72;;;14.81;90.58
81352;BME280;70809;52.184;13.422;2023-07-20T03:44:36;100811.06;;;14.61;90.95
81352;BME280;70809;52.184;13.422;2023-07-20T03:45:39;100809.31;;;14.70;91.12
81352;BME280;70809;52.184;13.422;2023-07-20T03:46:41;100817.25;;;14.67;91.14
81352;BME280;70809;52.184;13.422;2023-07-20T03:47:43;100819.94;;;14.59;91.29
81352;BME280;70809;52.184;13.422;2023-07-20T03:48:45;100809.31;;;14.48;91.72
81352;BME280;70809;52.184;13.422;2023-07-20T03:49:46;100821.72;;;14.55;91.73
81352;BME280;70809;52.184;13.422;2023-07-20T03:50:50;100813.75;;;14.57;91.00
81352;BME280;70809;52.184;13.422;2023-07-20T03:51:53;100819.94;;;14.64;91.02
81352;BME280;70809;52.184;13.422;2023-07-20T03:52:55;100815.50;;;14.59;91.03
81352;BME280;70809;52.184;13.422;2023-07-20T03:53:57;100823.44;;;14.73;90.78
81352;BME280;70809;52.184;13.422;2023-07-20T03:54:59;100813.75;;;14.60;90.66
81352;BME280;70809;52.184;13.422;2023-07-20T03:56:04;100815.53;;;14.58;90.98
81352;BME280;70809;52.184;13.422;2023-07-20T03:57:06;100819.03;;;14.77;90.59
81352;BME280;70809;52.184;13.422;2023-07-20T03:58:08;100818.16;;;14.66;90.57
81352;BME280;70809;52.184;13.422;2023-07-20T03:59:09;100818.16;;;14.72;90.60
81352;BME280;70809;52.184;13.422;2023-07-20T04:00:12;100818.16;;;14.75;90.01
81352;BME280;70809;52.184;13.422;2023-07-20T04:01:14;100813.69;;;14.78;89.99
81352;BME280;70809;52.184;13.422;2023-07-20T04:02:15;100814.59;;;14.82;89.58
81352;BME280;70809;52.184;13.422;2023-07-20T04:03:17;100807.47;;;14.84;89.67
81352;BME280;70809;52.184;13.422;2023-07-20T04:04:20;100814.59;;;14.80;89.86
81352;BME280;70809;52.184;13.422;2023-07-20T04:05:22;100816.38;;;14.74;90.02
81352;BME280;70809;52.184;13.422;2023-07-20T04:06:24;100819.03;;;14.81;89.43
81352;BME280;70809;52.184;13.422;2023-07-20T04:07:28;100818.16;;;14.69;90.16
81352;BME280;70809;52.184;13.422;2023-07-20T04:08:30;100818.16;;;14.59;90.87
81352;BME280;70809;52.184;13.422;2023-07-20T04:09:31;100813.75;;;14.58;90.78
81352;BME280;70809;52.184;13.422;2023-07-20T04:10:33;100817.31;;;14.51;91.09
81352;BME280;70809;52.184;13.422;2023-07-20T04:11:35;100814.63;;;14.48;91.54
81352;BME280;70809;52.184;13.422;2023-07-20T04:12:36;100820.81;;;14.55;91.27
81352;BME280;70809;52.184;13.422;2023-07-20T04:13:38;100817.28;;;14.48;91.23
81352;BME280;70809;52.184;13.422;2023-07-20T04:14:40;100826.16;;;14.49;91.37
81352;BME280;70809;52.184;13.422;2023-07-20T04:15:42;100817.28;;;14.59;90.85
81352;BME280;70809;52.184;13.422;2023-07-20T04:16:46;100809.28;;;14.77;90.02
81352;BME280;70809;52.184;13.422;2023-07-20T04:17:48;100826.13;;;14.76;90.44
81352;BME280;70809;52.184;13.422;2023-07-20T04:18:50;100819.97;;;14.57;90.62
81352;BME280;70809;52.184;13.422;2023-07-20T04:19:51;100815.53;;;14.63;90.46
81352;BME280;70809;52.184;13.422;2023-07-20T04:20:53;100810.16;;;14.67;90.38
81352;BME280;70809;52.184;13.422;2023-07-20T04:21:55;100817.28;;;14.74;89.93
81352;BME280;70809;52.184;13.422;2023-07-20T04:22:58;100811.94;;;14.62;90.41
81352;BME280;70809;52.184;13.422;2023-07-20T04:24:00;100819.06;;;14.55;90.41
81352;BME280;70809;52.184;13.422;2023-07-20T04:25:02;100819.06;;;14.55;90.97
81352;BME280;70809;52.184;13.422;2023-07-20T04:26:04;100812.88;;;14.53;90.61
81352;BME280;70809;52.184;13.422;2023-07-20T04:27:06;100815.50;;;14.59;90.38
81352;BME280;70809;52.184;13.422;2023-07-20T04:28:07;100818.13;;;14.78;89.92
81352;BME280;70809;52.184;13.422;2023-07-20T04:29:13;100824.34;;;14.78;89.71
81352;BME280;70809;52.184;13.422;2023-07-20T04:30:18;100820.81;;;14.72;89.57
81352;BME280;70809;52.184;13.422;2023-07-20T04:31:19;100820.81;;;14.75;89.74
81352;BME280;70809;52.184;13.422;2023-07-20T04:32:21;100830.53;;;14.79;89.35
81352;BME280;70809;52.184;13.422;2023-07-20T04:33:23;100822.56;;;14.80;89.33
81352;BME280;70809;52.184;13.422;2023-07-20T04:34:25;100816.34;;;14.86;88.88
81352;BME280;70809;52.184;13.422;2023-07-20T04:35:45;100818.97;;;14.95;88.59
81352;BME280;70809;52.184;13.422;2023-07-20T04:36:49;100818.06;;;15.04;87.86
81352;BME280;70809;52.184;13.422;2023-07-20T04:37:52;100826.03;;;15.05;88.35
81352;BME280;70809;52.184;13.422;2023-07-20T04:38:57;100833.09;;;15.19;87.96
81352;BME280;70809;52.184;13.422;2023-07-20T04:39:58;100819.81;;;15.06;87.88
81352;BME280;70809;52.184;13.422;2023-07-20T04:41:01;100824.25;;;15.12;87.66
81352;BME280;70809;52.184;13.422;2023-07-20T04:42:06;100821.56;;;15.18;87.06
81352;BME280;70809;52.184;13.422;2023-07-20T04:43:07;100821.53;;;15.23;86.69
81352;BME280;70809;52.184;13.422;2023-07-20T04:44:09;100823.34;;;15.18;86.34
81352;BME280;70809;52.184;13.422;2023-07-20T04:45:11;100812.69;;;15.16;86.67
81352;BME280;70809;52.184;13.422;2023-07-20T04:46:13;100822.41;;;15.29;86.15
81352;BME280;70809;52.184;13.422;2023-07-20T04:47:16;100823.22;;;15.40;86.02
81352;BME280;70809;52.184;13.422;2023-07-20T04:48:18;100832.13;;;15.35;85.71
81352;BME280;70809;52.184;13.422;2023-07-20T04:49:24;100826.88;;;15.26;86.48
81352;BME280;70809;52.184;13.422;2023-07-20T04:50:26;100830.44;;;15.16;86.85
81352;BME280;70809;52.184;13.422;2023-07-20T04:51:27;100826.91;;;15.10;86.71
81352;BME280;70809;52.184;13.422;2023-07-20T04:52:29;100819.84;;;15.00;87.04
81352;BME280;70809;52.184;13.422;2023-07-20T04:53:44;100826.03;;;15.05;87.11
81352;BME280;70809;52.184;13.422;2023-07-20T04:54:47;100826.91;;;15.07;87.35
81352;BME280;70809;52.184;13.422;2023-07-20T04:55:49;100823.34;;;15.13;86.97
81352;BME280;70809;52.184;13.422;2023-07-20T04:56:55;100828.72;;;15.08;86.91
81352;BME280;70809;52.184;13.422;2023-07-20T04:57:57;100822.53;;;14.93;87.56
81352;BME280;70809;52.184;13.422;2023-07-20T04:58:59;100825.22;;;14.82;88.19
81352;BME280;70809;52.184;13.422;2023-07-20T05:00:02;100811.91;;;14.88;88.06
81352;BME280;70809;52.184;13.422;2023-07-20T05:01:05;100824.28;;;14.98;88.08
81352;BME280;70809;52.184;13.422;2023-07-20T05:02:09;100822.44;;;15.22;87.25
81352;BME280;70809;52.184;13.422;2023-07-20T05:03:11;100821.56;;;15.20;87.03
81352;BME280;70809;52.184;13.422;2023-07-20T05:04:13;100823.34;;;15.18;86.55
81352;BME280;70809;52.184;13.422;2023-07-20T05:05:16;100827.81;;;15.14;87.13
81352;BME280;70809;52.184;13.422;2023-07-20T05:06:18;100820.75;;;14.95;87.82
81352;BME280;70809;52.184;13.422;2023-07-20T05:07:20;100826.06;;;14.96;87.53
81352;BME280;70809;52.184;13.422;2023-07-20T05:08:22;100826.97;;;14.98;87.58
81352;BME280;70809;52.184;13.422;2023-07-20T05:09:24;100828.72;;;15.04;87.63
81352;BME280;70809;52.184;13.422;2023-07-20T05:10:27;100830.44;;;15.12;87.45
81352;BME280;70809;52.184;13.422;2023-07-20T05:11:29;100832.22;;;15.17;87.37
81352;BME280;70809;52.184;13.422;2023-07-20T05:12:31;100835.81;;;15.03;87.59
81352;BME280;70809;52.184;13.422;2023-07-20T05:13:33;100834.91;;;15.09;87.04
81352;BME280;70809;52.184;13.422;2023-07-20T05:14:34;100832.22;;;15.13;87.22
81352;BME280;70809;52.184;13.422;2023-07-20T05:15:36;100836.63;;;15.24;87.13
81352;BME280;70809;52.184;13.422;2023-07-20T05:16:39;100844.63;;;15.22;87.08
81352;BME280;70809;52.184;13.422;2023-07-20T05:17:42;100829.44;;;15.41;86.58
81352;BME280;70809;52.184;13.422;2023-07-20T05:18:44;100837.47;;;15.35;86.29
81352;BME280;70809;52.184;13.422;2023-07-20T05:19:46;100833.00;;;15.40;86.24
81352;BME280;70809;52.184;13.422;2023-07-20T05:20:48;100842.75;;;15.44;86.21
81352;BME280;70809;52.184;13.422;2023-07-20T05:21:50;100832.97;;;15.46;85.63
81352;BME280;70809;52.184;13.422;2023-07-20T05:22:53;100839.16;;;15.48;86.22
81352;BME280;70809;52.184;13.422;2023-07-20T05:23:57;100829.38;;;15.52;85.56
81352;BME280;70809;52.184;13.422;2023-07-20T05:24:59;100831.22;;;15.39;85.97
81352;BME280;70809;52.184;13.422;2023-07-20T05:26:02;100825.91;;;15.39;86.34